Time;durP1;ratioP1;P1;durP2;ratioP2;P2;SDS_P1;SDS_P2;PMS_P1;PMS_P2;Temp;Humidity;BMP_temperature;BMP_pressure;BME280_temperature;BME280_humidity;BME280_pressure;Samples;Min_cycle;Max_cycle;Signal;HPM_P1;HPM_P2
2022/07/06 00:03:13;;;;;;;2.53;0.47;;;;;;;;;;10419919;28;20293;-79
2022/07/06 00:08:14;;;;;;;1.65;0.73;;;;;;;;;;10426091;28;20230;-79
2022/07/06 00:13:15;;;;;;;1.58;0.50;;;;;;;;;;10429277;28;20187;-79
2022/07/06 00:18:17;;;;;;;2.15;0.50;;;;;;;;;;10424392;28;20290;-79
2022/07/06 00:23:18;;;;;;;0.68;0.45;;;;;;;;;;10427338;28;20187;-79
2022/07/06 00:28:19;;;;;;;0.95;0.55;;;;;;;;;;10427972;28;20242;-77
2022/07/06 00:33:20;;;;;;;1.00;0.45;;;;;;;;;;10386982;28;20213;-78
2022/07/06 00:38:21;;;;;;;4.60;0.60;;;;;;;;;;10424424;28;20191;-78
2022/07/06 00:43:23;;;;;;;3.78;0.80;;;;;;;;;;10408619;28;20209;-79
2022/07/06 00:48:24;;;;;;;1.15;0.50;;;;;;;;;;10426144;28;20233;-78
2022/07/06 00:53:25;;;;;;;1.20;0.50;;;;;;;;;;10427140;28;20241;-78
2022/07/06 00:58:26;;;;;;;1.63;0.55;;;;;;;;;;10425999;28;20249;-78
2022/07/06 01:03:27;;;;;;;1.52;0.60;;;;;;;;;;10406266;28;20277;-78
2022/07/06 01:08:28;;;;;;;1.55;0.60;;;;;;;;;;10418479;28;20326;-78
2022/07/06 01:13:31;;;;;;;1.95;0.70;;;;;;;;;;10419519;28;20318;-79
2022/07/06 01:18:33;;;;;;;0.95;0.70;;;;;;;;;;10419888;28;20282;-78
2022/07/06 01:23:38;;;;;;;0.77;0.77;;;;;;;;;;10421499;28;20214;-78
2022/07/06 01:28:40;;;;;;;1.65;0.60;;;;;;;;;;10426480;28;20230;-78
2022/07/06 01:33:41;;;;;;;4.63;0.98;;;;;;;;;;10425057;28;20266;-79
2022/07/06 01:38:58;;;;;;;0.80;0.60;;;;;;;;;;10421147;28;20186;-79
2022/07/06 01:43:59;;;;;;;3.35;0.70;;;;;;;;;;10419861;28;20674;-79
2022/07/06 01:49:00;;;;;;;1.90;0.70;;;;;;;;;;10422143;28;20261;-79
2022/07/06 01:54:02;;;;;;;2.75;0.70;;;;;;;;;;10402776;28;20218;-79
2022/07/06 01:59:04;;;;;;;1.20;0.73;;;;;;;;;;10416900;28;20528;-79
2022/07/06 02:04:05;;;;;;;2.53;0.57;;;;;;;;;;10383339;28;20234;-79
2022/07/06 02:09:07;;;;;;;2.15;0.60;;;;;;;;;;10419774;28;20303;-79
2022/07/06 02:14:08;;;;;;;0.55;0.50;;;;;;;;;;10418723;28;20241;-79
2022/07/06 02:19:12;;;;;;;2.25;0.50;;;;;;;;;;10397039;28;20207;-79
2022/07/06 02:24:13;;;;;;;1.73;0.50;;;;;;;;;;10409882;28;20246;-79
2022/07/06 02:29:15;;;;;;;2.95;0.80;;;;;;;;;;10418655;28;20193;-80
2022/07/06 02:34:16;;;;;;;4.72;0.88;;;;;;;;;;10402611;28;20217;-79
2022/07/06 02:39:17;;;;;;;3.55;0.95;;;;;;;;;;10416305;28;21850;-80
2022/07/06 02:44:19;;;;;;;4.68;0.75;;;;;;;;;;10425728;28;20206;-79
2022/07/06 02:49:20;;;;;;;2.53;0.88;;;;;;;;;;10428366;28;20613;-79
2022/07/06 02:54:21;;;;;;;1.13;0.63;;;;;;;;;;10420443;28;20249;-79
2022/07/06 02:59:23;;;;;;;4.22;0.80;;;;;;;;;;10402740;28;20225;-79
2022/07/06 03:04:24;;;;;;;4.07;0.93;;;;;;;;;;10410549;28;20305;-79
2022/07/06 03:09:26;;;;;;;1.92;0.70;;;;;;;;;;10430534;28;20218;-80
2022/07/06 03:14:27;;;;;;;2.03;0.60;;;;;;;;;;10431297;28;20897;-79
2022/07/06 03:19:28;;;;;;;0.88;0.55;;;;;;;;;;10449292;28;20212;-78
2022/07/06 03:24:30;;;;;;;1.25;0.80;;;;;;;;;;10428434;28;20218;-79
2022/07/06 03:29:31;;;;;;;0.82;0.80;;;;;;;;;;10433579;28;20240;-79
2022/07/06 03:34:33;;;;;;;1.23;0.60;;;;;;;;;;10409561;28;20306;-79
2022/07/06 03:39:34;;;;;;;3.63;0.70;;;;;;;;;;10429338;28;20191;-79
2022/07/06 03:44:37;;;;;;;3.42;0.80;;;;;;;;;;10425745;28;20207;-79
2022/07/06 03:49:38;;;;;;;1.95;0.90;;;;;;;;;;10422520;28;20198;-79
2022/07/06 03:54:42;;;;;;;3.15;0.88;;;;;;;;;;10412948;28;20186;-78
2022/07/06 03:59:44;;;;;;;5.22;1.00;;;;;;;;;;10406241;28;20267;-79
2022/07/06 04:04:46;;;;;;;0.77;0.70;;;;;;;;;;10423130;28;20322;-79
2022/07/06 04:09:47;;;;;;;1.80;0.90;;;;;;;;;;10408876;28;20281;-79
2022/07/06 04:14:48;;;;;;;3.15;0.80;;;;;;;;;;10421290;28;20187;-79
2022/07/06 04:19:50;;;;;;;1.63;0.80;;;;;;;;;;10418915;28;20598;-79
2022/07/06 04:24:51;;;;;;;2.83;0.90;;;;;;;;;;10421584;28;20214;-79
2022/07/06 04:29:53;;;;;;;5.43;0.70;;;;;;;;;;10442491;28;20186;-79
2022/07/06 04:34:54;;;;;;;1.92;0.70;;;;;;;;;;10435044;28;20257;-78
2022/07/06 04:39:55;;;;;;;2.58;0.70;;;;;;;;;;10420971;28;20191;-77
2022/07/06 04:44:57;;;;;;;4.03;0.70;;;;;;;;;;10425644;28;20252;-78
2022/07/06 04:49:58;;;;;;;1.23;0.77;;;;;;;;;;10412929;28;20199;-77
2022/07/06 04:54:59;;;;;;;1.65;0.70;;;;;;;;;;10417518;28;20191;-77
2022/07/06 05:00:01;;;;;;;5.65;1.02;;;;;;;;;;10430293;28;20277;-78
2022/07/06 05:05:02;;;;;;;1.95;0.70;;;;;;;;;;10430965;28;20564;-76
2022/07/06 05:10:03;;;;;;;5.68;0.80;;;;;;;;;;10436039;28;20296;-79
2022/07/06 05:15:07;;;;;;;4.70;1.10;;;;;;;;;;10428044;28;20614;-77
2022/07/06 05:20:09;;;;;;;7.57;1.10;;;;;;;;;;10401957;28;20303;-75
2022/07/06 05:25:14;;;;;;;1.85;0.60;;;;;;;;;;10419869;28;20206;-75
2022/07/06 05:30:17;;;;;;;2.08;0.88;;;;;;;;;;10410353;28;20187;-72
2022/07/06 05:35:19;;;;;;;3.45;0.57;;;;;;;;;;10423508;28;21178;-75
2022/07/06 05:40:20;;;;;;;3.75;0.80;;;;;;;;;;10402871;28;20572;-75
2022/07/06 05:45:22;;;;;;;6.28;0.70;;;;;;;;;;10399027;28;20325;-74
2022/07/06 05:50:24;;;;;;;7.45;1.08;;;;;;;;;;10398824;28;20218;-74
2022/07/06 05:55:29;;;;;;;3.78;0.73;;;;;;;;;;10401269;28;20790;-73
2022/07/06 06:00:32;;;;;;;4.95;0.65;;;;;;;;;;10380157;28;20191;-75
2022/07/06 06:05:38;;;;;;;3.60;0.50;;;;;;;;;;10400571;28;20235;-76
2022/07/06 06:10:42;;;;;;;1.17;0.73;;;;;;;;;;10374236;28;20223;-73
2022/07/06 06:15:47;;;;;;;1.63;0.52;;;;;;;;;;10379535;28;20500;-75
2022/07/06 06:20:49;;;;;;;2.05;0.68;;;;;;;;;;10376494;28;20570;-74
2022/07/06 06:25:51;;;;;;;4.13;0.60;;;;;;;;;;10373512;28;20628;-75
2022/07/06 06:30:52;;;;;;;0.50;0.50;;;;;;;;;;10364744;28;20296;-77
2022/07/06 06:35:54;;;;;;;1.27;0.45;;;;;;;;;;10362065;28;20227;-73
2022/07/06 06:40:55;;;;;;;1.23;0.40;;;;;;;;;;10380750;28;20287;-73
2022/07/06 06:45:56;;;;;;;1.85;0.60;;;;;;;;;;10377723;28;20302;-76
2022/07/06 06:50:57;;;;;;;1.02;0.50;;;;;;;;;;10377769;28;20211;-76
2022/07/06 06:55:58;;;;;;;4.75;0.57;;;;;;;;;;10378097;28;20197;-76
2022/07/06 07:00:59;;;;;;;3.55;0.40;;;;;;;;;;10374852;28;20245;-76
2022/07/06 07:06:00;;;;;;;1.73;0.52;;;;;;;;;;10378091;28;20211;-76
2022/07/06 07:11:01;;;;;;;2.30;0.60;;;;;;;;;;10413809;28;20199;-75
2022/07/06 07:16:02;;;;;;;4.28;0.40;;;;;;;;;;10408887;28;20198;-76
2022/07/06 07:21:03;;;;;;;1.48;0.40;;;;;;;;;;10412041;28;20306;-76
2022/07/06 07:26:04;;;;;;;3.38;0.52;;;;;;;;;;10422056;28;20858;-76
2022/07/06 07:31:05;;;;;;;0.90;0.32;;;;;;;;;;10432406;28;20210;-78
2022/07/06 07:36:06;;;;;;;0.28;0.28;;;;;;;;;;10414519;28;20254;-75
2022/07/06 07:41:08;;;;;;;1.10;0.50;;;;;;;;;;10438875;28;20194;-77
2022/07/06 07:46:09;;;;;;;1.95;0.70;;;;;;;;;;10434195;28;20229;-75
2022/07/06 07:51:10;;;;;;;1.10;0.50;;;;;;;;;;10411368;28;20215;-73
2022/07/06 07:56:11;;;;;;;0.95;0.50;;;;;;;;;;10422819;28;20191;-76
2022/07/06 08:01:12;;;;;;;1.30;0.40;;;;;;;;;;10432024;28;20219;-77
2022/07/06 08:06:13;;;;;;;2.67;0.43;;;;;;;;;;10411426;28;20599;-77
2022/07/06 08:11:14;;;;;;;1.58;0.30;;;;;;;;;;10413105;28;20578;-78
2022/07/06 08:16:15;;;;;;;1.13;0.30;;;;;;;;;;10435594;28;20191;-77
2022/07/06 08:21:16;;;;;;;3.08;0.40;;;;;;;;;;10430727;28;20624;-75
2022/07/06 08:26:17;;;;;;;0.85;0.38;;;;;;;;;;10429155;28;20237;-79
2022/07/06 08:31:18;;;;;;;1.17;0.40;;;;;;;;;;10433083;28;20210;-73
2022/07/06 08:36:20;;;;;;;1.85;0.30;;;;;;;;;;10414723;28;20691;-77
2022/07/06 08:41:22;;;;;;;1.65;0.30;;;;;;;;;;10427158;28;20223;-77
2022/07/06 08:46:23;;;;;;;1.38;0.30;;;;;;;;;;10429282;28;20705;-77
2022/07/06 08:51:25;;;;;;;0.80;0.20;;;;;;;;;;10429776;28;20989;-78
2022/07/06 08:56:29;;;;;;;0.32;0.20;;;;;;;;;;10431335;28;20192;-77
2022/07/06 09:01:30;;;;;;;2.80;0.20;;;;;;;;;;10409355;28;20348;-78
2022/07/06 09:06:31;;;;;;;2.40;0.30;;;;;;;;;;10430824;28;20280;-78
2022/07/06 09:11:33;;;;;;;1.92;0.30;;;;;;;;;;10430339;28;20214;-79
2022/07/06 09:16:34;;;;;;;2.20;0.57;;;;;;;;;;10425554;28;20218;-77
2022/07/06 09:21:38;;;;;;;0.55;0.40;;;;;;;;;;10400359;28;20214;-79
2022/07/06 09:26:40;;;;;;;0.82;0.50;;;;;;;;;;10428090;28;20272;-80
2022/07/06 09:31:42;;;;;;;0.60;0.30;;;;;;;;;;10433483;28;20211;-79
2022/07/06 09:36:47;;;;;;;0.73;0.30;;;;;;;;;;10432465;28;20287;-81
2022/07/06 09:41:50;;;;;;;0.35;0.20;;;;;;;;;;10433377;28;20229;-76
2022/07/06 09:46:51;;;;;;;2.30;0.20;;;;;;;;;;10428400;28;20248;-77
2022/07/06 09:51:56;;;;;;;0.20;0.20;;;;;;;;;;10426846;28;20663;-79
2022/07/06 09:56:58;;;;;;;0.75;0.30;;;;;;;;;;10428089;28;20215;-79
2022/07/06 10:02:00;;;;;;;1.20;0.20;;;;;;;;;;10425195;28;20257;-79
2022/07/06 10:07:02;;;;;;;1.55;0.30;;;;;;;;;;10426686;28;20239;-77
2022/07/06 10:12:03;;;;;;;0.20;0.20;;;;;;;;;;10428226;28;20198;-78
2022/07/06 10:17:05;;;;;;;0.20;0.20;;;;;;;;;;10425841;28;20191;-77
2022/07/06 10:22:06;;;;;;;0.40;0.32;;;;;;;;;;10424627;28;20198;-78
2022/07/06 10:27:08;;;;;;;2.30;0.20;;;;;;;;;;10418142;28;20273;-79
2022/07/06 10:32:10;;;;;;;0.50;0.10;;;;;;;;;;10424335;28;20219;-75
2022/07/06 10:37:22;;;;;;;0.65;0.20;;;;;;;;;;10424264;28;20257;-77
2022/07/06 10:42:41;;;;;;;1.52;0.40;;;;;;;;;;10418143;28;20202;-74
2022/07/06 10:47:43;;;;;;;2.05;0.30;;;;;;;;;;10416309;28;21026;-77
2022/07/06 10:52:58;;;;;;;1.15;0.20;;;;;;;;;;10406022;28;20290;-76
2022/07/06 10:58:00;;;;;;;0.57;0.20;;;;;;;;;;10416613;28;20210;-78
2022/07/06 11:03:21;;;;;;;0.65;0.30;;;;;;;;;;10424324;28;20222;-77
2022/07/06 11:08:22;;;;;;;0.40;0.20;;;;;;;;;;10426521;28;20215;-76
2022/07/06 11:13:29;;;;;;;1.77;0.20;;;;;;;;;;10431513;28;20191;-79
2022/07/06 11:18:39;;;;;;;0.65;0.20;;;;;;;;;;10432506;28;20210;-79
2022/07/06 11:23:40;;;;;;;2.72;0.30;;;;;;;;;;10415424;28;20207;-78
2022/07/06 11:28:41;;;;;;;1.52;0.40;;;;;;;;;;10428847;28;20975;-78
2022/07/06 11:33:45;;;;;;;0.30;0.30;;;;;;;;;;10430192;28;20713;-76
2022/07/06 11:38:47;;;;;;;0.38;0.20;;;;;;;;;;10430370;28;20191;-76
2022/07/06 11:43:51;;;;;;;0.20;0.20;;;;;;;;;;10430063;28;20209;-74
2022/07/06 11:48:53;;;;;;;0.20;0.20;;;;;;;;;;10427599;28;20245;-77
2022/07/06 11:54:02;;;;;;;0.20;0.20;;;;;;;;;;10427971;28;20187;-77
2022/07/06 11:59:03;;;;;;;1.27;0.20;;;;;;;;;;10432888;28;20274;-76
2022/07/06 12:04:04;;;;;;;0.73;0.20;;;;;;;;;;10412304;28;20237;-75
2022/07/06 12:09:06;;;;;;;1.23;0.25;;;;;;;;;;10428582;28;20237;-75
2022/07/06 12:14:18;;;;;;;0.43;0.20;;;;;;;;;;10427196;28;20192;-76
2022/07/06 12:19:22;;;;;;;0.20;0.20;;;;;;;;;;10427844;28;20211;-76
2022/07/06 12:24:24;;;;;;;0.95;0.10;;;;;;;;;;10425962;28;20245;-75
2022/07/06 12:29:26;;;;;;;0.25;0.20;;;;;;;;;;10426081;28;20211;-76
2022/07/06 12:34:27;;;;;;;0.65;0.30;;;;;;;;;;10421910;28;20277;-75
2022/07/06 12:39:29;;;;;;;0.30;0.10;;;;;;;;;;10426177;28;20829;-73
2022/07/06 12:44:31;;;;;;;4.07;0.30;;;;;;;;;;10424575;28;20222;-75
2022/07/06 12:49:32;;;;;;;0.22;0.15;;;;;;;;;;10425011;28;20216;-76
2022/07/06 12:54:35;;;;;;;1.35;0.17;;;;;;;;;;10424655;28;20568;-75
2022/07/06 12:59:38;;;;;;;1.17;0.20;;;;;;;;;;10427335;28;20237;-75
2022/07/06 13:04:39;;;;;;;0.30;0.20;;;;;;;;;;10425111;28;20911;-77
2022/07/06 13:09:40;;;;;;;3.90;0.30;;;;;;;;;;10425301;28;20685;-76
2022/07/06 13:14:41;;;;;;;0.60;0.30;;;;;;;;;;10425065;28;20370;-75
2022/07/06 13:19:42;;;;;;;1.23;0.30;;;;;;;;;;10422917;28;20219;-74
2022/07/06 13:24:43;;;;;;;1.00;0.20;;;;;;;;;;10426885;28;20200;-76
2022/07/06 13:29:45;;;;;;;2.97;0.20;;;;;;;;;;10406308;28;20217;-75
2022/07/06 13:34:46;;;;;;;1.05;0.25;;;;;;;;;;10427534;28;20218;-75
2022/07/06 13:39:47;;;;;;;0.50;0.30;;;;;;;;;;10421698;28;20227;-78
2022/07/06 13:44:48;;;;;;;1.92;0.22;;;;;;;;;;10429374;28;20597;-77
2022/07/06 13:49:49;;;;;;;1.10;0.40;;;;;;;;;;10423708;28;20215;-75
2022/07/06 13:54:50;;;;;;;0.25;0.20;;;;;;;;;;10425715;28;20198;-77
2022/07/06 13:59:51;;;;;;;8.88;0.75;;;;;;;;;;10425999;28;20606;-79
2022/07/06 14:04:52;;;;;;;2.92;0.20;;;;;;;;;;10423719;28;20259;-75
2022/07/06 14:09:54;;;;;;;0.77;0.30;;;;;;;;;;10428344;28;20958;-77
2022/07/06 14:14:55;;;;;;;1.08;0.28;;;;;;;;;;10429092;28;20574;-79
2022/07/06 14:19:56;;;;;;;1.27;0.20;;;;;;;;;;10430430;28;20779;-76
2022/07/06 14:24:57;;;;;;;0.28;0.20;;;;;;;;;;10425821;28;20716;-78
2022/07/06 14:29:58;;;;;;;0.82;0.20;;;;;;;;;;10426357;28;20194;-76
2022/07/06 14:34:59;;;;;;;0.30;0.30;;;;;;;;;;10425910;28;20417;-76
2022/07/06 14:40:00;;;;;;;0.52;0.30;;;;;;;;;;10432879;28;20230;-78
2022/07/06 14:45:01;;;;;;;0.98;0.20;;;;;;;;;;10440471;28;21015;-77
2022/07/06 14:50:03;;;;;;;0.50;0.20;;;;;;;;;;10435618;28;20210;-79
2022/07/06 14:55:04;;;;;;;0.28;0.20;;;;;;;;;;10436176;28;20216;-77
2022/07/06 15:00:06;;;;;;;2.42;0.30;;;;;;;;;;10436747;28;20862;-78
2022/07/06 15:05:07;;;;;;;2.53;0.20;;;;;;;;;;10433582;28;20265;-74
2022/07/06 15:10:09;;;;;;;1.45;0.20;;;;;;;;;;10425014;28;20245;-78
2022/07/06 15:15:10;;;;;;;2.55;0.20;;;;;;;;;;10432780;28;20194;-76
2022/07/06 15:20:12;;;;;;;1.83;0.40;;;;;;;;;;10435417;28;20260;-76
2022/07/06 15:25:13;;;;;;;1.85;0.30;;;;;;;;;;10435676;28;20253;-76
2022/07/06 15:30:14;;;;;;;3.22;0.20;;;;;;;;;;10431148;28;20611;-77
2022/07/06 15:35:15;;;;;;;1.17;0.30;;;;;;;;;;10435094;28;20195;-79
2022/07/06 15:40:22;;;;;;;0.32;0.28;;;;;;;;;;10437473;28;20183;-78
2022/07/06 15:45:25;;;;;;;0.55;0.30;;;;;;;;;;10418944;28;20227;-78
2022/07/06 15:50:26;;;;;;;0.95;0.20;;;;;;;;;;10432253;28;20266;-77
2022/07/06 15:55:27;;;;;;;2.75;0.30;;;;;;;;;;10431932;28;20230;-79
2022/07/06 16:00:28;;;;;;;0.43;0.40;;;;;;;;;;10431755;28;20318;-80
2022/07/06 16:05:29;;;;;;;2.70;0.38;;;;;;;;;;10432492;28;20219;-77
2022/07/06 16:10:30;;;;;;;2.33;0.30;;;;;;;;;;10430262;28;20233;-76
2022/07/06 16:15:31;;;;;;;1.55;0.30;;;;;;;;;;10438727;28;20188;-78
2022/07/06 16:20:32;;;;;;;0.95;0.30;;;;;;;;;;10433002;28;20709;-77
2022/07/06 16:25:33;;;;;;;1.23;0.20;;;;;;;;;;10434375;28;20218;-77
2022/07/06 16:30:35;;;;;;;0.68;0.30;;;;;;;;;;10438317;28;20222;-78
2022/07/06 16:35:37;;;;;;;1.20;0.28;;;;;;;;;;10435661;28;20190;-76
2022/07/06 16:40:38;;;;;;;2.22;0.40;;;;;;;;;;10434178;28;20274;-75
2022/07/06 16:45:40;;;;;;;1.90;0.25;;;;;;;;;;10430228;28;20623;-76
2022/07/06 16:50:41;;;;;;;0.80;0.20;;;;;;;;;;10412280;28;20218;-75
2022/07/06 16:55:42;;;;;;;2.33;0.30;;;;;;;;;;10432919;28;20851;-77
2022/07/06 17:00:44;;;;;;;1.95;0.40;;;;;;;;;;10436677;28;20342;-77
2022/07/06 17:05:46;;;;;;;0.30;0.30;;;;;;;;;;10433840;28;20215;-78
2022/07/06 17:10:47;;;;;;;0.88;0.30;;;;;;;;;;10430487;28;20217;-75
2022/07/06 17:15:48;;;;;;;0.90;0.25;;;;;;;;;;10433796;28;20195;-76
2022/07/06 17:20:49;;;;;;;0.20;0.20;;;;;;;;;;10431944;28;20238;-77
2022/07/06 17:25:56;;;;;;;0.30;0.30;;;;;;;;;;10428736;28;20210;-77
2022/07/06 17:30:57;;;;;;;3.35;0.47;;;;;;;;;;10430426;28;20750;-79
2022/07/06 17:35:59;;;;;;;0.32;0.28;;;;;;;;;;10427780;28;20187;-81
2022/07/06 17:41:00;;;;;;;0.35;0.30;;;;;;;;;;10435649;28;20198;-79
2022/07/06 17:46:01;;;;;;;0.85;0.20;;;;;;;;;;10442291;28;20217;-78
2022/07/06 17:51:02;;;;;;;1.55;0.30;;;;;;;;;;10430288;28;20299;-81
2022/07/06 17:56:04;;;;;;;0.63;0.40;;;;;;;;;;10427930;28;20194;-78
2022/07/06 18:01:05;;;;;;;0.40;0.20;;;;;;;;;;10428749;28;20218;-78
2022/07/06 18:06:06;;;;;;;0.50;0.20;;;;;;;;;;10435310;28;20273;-80
2022/07/06 18:11:07;;;;;;;1.35;0.28;;;;;;;;;;10432757;28;20187;-77
2022/07/06 18:16:08;;;;;;;0.52;0.20;;;;;;;;;;10427389;28;20282;-78
2022/07/06 18:21:09;;;;;;;3.40;0.20;;;;;;;;;;10427266;28;20238;-78
2022/07/06 18:26:11;;;;;;;2.50;0.30;;;;;;;;;;10428533;28;20226;-75
2022/07/06 18:31:12;;;;;;;2.60;0.40;;;;;;;;;;10420758;28;20646;-73
2022/07/06 18:36:13;;;;;;;0.60;0.30;;;;;;;;;;10419440;28;20270;-73
2022/07/06 18:41:14;;;;;;;3.05;0.30;;;;;;;;;;10408466;28;20922;-76
2022/07/06 18:46:16;;;;;;;1.42;0.30;;;;;;;;;;10428771;28;20210;-77
2022/07/06 18:51:17;;;;;;;3.05;0.30;;;;;;;;;;10424567;28;20261;-78
2022/07/06 18:56:19;;;;;;;0.22;0.22;;;;;;;;;;10419062;28;20627;-78
2022/07/06 19:01:20;;;;;;;2.67;0.30;;;;;;;;;;10428253;28;20825;-78
2022/07/06 19:06:21;;;;;;;1.83;0.28;;;;;;;;;;10433624;28;20218;-75
2022/07/06 19:11:22;;;;;;;1.98;0.28;;;;;;;;;;10424851;28;20191;-77
2022/07/06 19:16:23;;;;;;;3.22;0.30;;;;;;;;;;10428476;28;20191;-79
2022/07/06 19:21:25;;;;;;;1.05;0.20;;;;;;;;;;10431515;28;20264;-80
2022/07/06 19:26:26;;;;;;;0.65;0.30;;;;;;;;;;10444688;28;21094;-80
2022/07/06 19:31:29;;;;;;;1.10;1.08;;;;;;;;;;10408770;28;20708;-75
2022/07/06 19:36:30;;;;;;;0.85;0.50;;;;;;;;;;10426818;28;20632;-80
2022/07/06 19:41:31;;;;;;;0.55;0.40;;;;;;;;;;10433075;28;20191;-79
2022/07/06 19:46:32;;;;;;;3.00;0.50;;;;;;;;;;10428302;28;20218;-78
2022/07/06 19:51:33;;;;;;;1.25;0.50;;;;;;;;;;10432592;28;20283;-76
2022/07/06 19:56:34;;;;;;;3.05;0.35;;;;;;;;;;10438729;28;20195;-79
2022/07/06 20:01:35;;;;;;;1.75;0.30;;;;;;;;;;10432470;28;20293;-82
2022/07/06 20:06:36;;;;;;;10.95;0.60;;;;;;;;;;10446388;28;20702;-82
2022/07/06 20:11:37;;;;;;;8.80;0.70;;;;;;;;;;10449195;28;20291;-81
2022/07/06 20:16:39;;;;;;;5.07;0.82;;;;;;;;;;10445436;28;20205;-81
2022/07/06 20:21:40;;;;;;;5.93;0.77;;;;;;;;;;10427182;28;20949;-80
2022/07/06 20:26:41;;;;;;;7.65;0.90;;;;;;;;;;10445623;28;20214;-81
2022/07/06 20:31:42;;;;;;;9.43;0.75;;;;;;;;;;10449840;28;20219;-80
2022/07/06 20:36:43;;;;;;;4.97;0.60;;;;;;;;;;10458428;28;20230;-80
2022/07/06 20:41:44;;;;;;;10.18;0.90;;;;;;;;;;10445150;28;20203;-81
2022/07/06 20:46:46;;;;;;;5.90;1.13;;;;;;;;;;10443876;28;20670;-81
2022/07/06 20:51:47;;;;;;;12.73;0.80;;;;;;;;;;10444472;28;20593;-81
2022/07/06 20:56:48;;;;;;;4.60;0.88;;;;;;;;;;10446732;28;20192;-81
2022/07/06 21:01:49;;;;;;;2.92;0.60;;;;;;;;;;10441522;28;20218;-81
2022/07/06 21:06:50;;;;;;;7.13;0.80;;;;;;;;;;10442692;28;20234;-80
2022/07/06 21:11:51;;;;;;;2.65;0.68;;;;;;;;;;10438968;28;20182;-80
2022/07/06 21:16:53;;;;;;;0.70;0.40;;;;;;;;;;10409608;28;20183;-81
2022/07/06 21:21:54;;;;;;;2.65;0.52;;;;;;;;;;10444260;28;20231;-80
2022/07/06 21:26:55;;;;;;;0.82;0.40;;;;;;;;;;10446433;28;20276;-81
2022/07/06 21:31:56;;;;;;;2.30;0.40;;;;;;;;;;10438733;28;20301;-80
2022/07/06 21:36:57;;;;;;;0.40;0.40;;;;;;;;;;10434756;28;20233;-80
2022/07/06 21:41:58;;;;;;;1.13;0.30;;;;;;;;;;10438674;28;20562;-80
2022/07/06 21:46:59;;;;;;;3.92;0.50;;;;;;;;;;10427131;28;20215;-80
2022/07/06 21:52:00;;;;;;;1.17;0.30;;;;;;;;;;10437741;28;20190;-80
2022/07/06 21:57:01;;;;;;;4.78;0.45;;;;;;;;;;10437329;28;20218;-80
2022/07/06 22:02:05;;;;;;;4.03;0.40;;;;;;;;;;10441775;28;20597;-80
2022/07/06 22:07:07;;;;;;;1.65;0.30;;;;;;;;;;10443058;28;20306;-80
2022/07/06 22:12:08;;;;;;;0.47;0.40;;;;;;;;;;10437151;28;20218;-80
2022/07/06 22:17:09;;;;;;;0.30;0.30;;;;;;;;;;10444327;28;21018;-80
2022/07/06 22:22:10;;;;;;;1.88;0.40;;;;;;;;;;10426655;28;20640;-81
2022/07/06 22:27:11;;;;;;;1.98;0.30;;;;;;;;;;10437790;28;20210;-80
2022/07/06 22:32:13;;;;;;;1.40;0.30;;;;;;;;;;10441898;28;20214;-80
2022/07/06 22:37:14;;;;;;;1.38;0.30;;;;;;;;;;10437936;28;20194;-81
2022/07/06 22:42:15;;;;;;;0.68;0.30;;;;;;;;;;10442971;28;20221;-81
2022/07/06 22:47:16;;;;;;;0.32;0.32;;;;;;;;;;10444366;28;20272;-80
2022/07/06 22:52:17;;;;;;;0.55;0.40;;;;;;;;;;10432602;28;20263;-80
2022/07/06 22:57:18;;;;;;;5.93;0.40;;;;;;;;;;10432081;28;20574;-81
2022/07/06 23:02:25;;;;;;;1.20;0.40;;;;;;;;;;10430427;28;20219;-81
2022/07/06 23:07:27;;;;;;;1.35;0.22;;;;;;;;;;10450700;28;20280;-81
2022/07/06 23:12:28;;;;;;;0.40;0.30;;;;;;;;;;10448871;28;20183;-81
2022/07/06 23:17:29;;;;;;;0.57;0.30;;;;;;;;;;10431946;28;20211;-81
2022/07/06 23:22:30;;;;;;;1.80;0.30;;;;;;;;;;10407054;28;20202;-81
2022/07/06 23:27:31;;;;;;;2.38;0.30;;;;;;;;;;10444005;28;20260;-81
2022/07/06 23:32:32;;;;;;;1.23;0.50;;;;;;;;;;10447269;28;20241;-81
2022/07/06 23:37:34;;;;;;;1.35;0.30;;;;;;;;;;10441691;28;20222;-80
2022/07/06 23:42:35;;;;;;;5.78;0.50;;;;;;;;;;10454316;28;20183;-80
2022/07/06 23:47:39;;;;;;;3.28;0.70;;;;;;;;;;10446325;28;20207;-80
2022/07/06 23:52:40;;;;;;;0.30;0.30;;;;;;;;;;10447454;28;20206;-79
2022/07/06 23:57:41;;;;;;;2.38;0.60;;;;;;;;;;10444498;28;20183;-79
